sensor_id;sensor_type;location;lat;lon;timestamp;P1;durP1;ratioP1;P2;durP2;ratioP2
56911;SDS011;42800;53.928;27.662;2023-09-19T00:01:05;16.05;;;5.82;;
56911;SDS011;42800;53.928;27.662;2023-09-19T00:03:34;10.68;;;8.13;;
56911;SDS011;42800;53.928;27.662;2023-09-19T00:06:02;6.78;;;5.40;;
56911;SDS011;42800;53.928;27.662;2023-09-19T00:08:29;18.35;;;7.25;;
56911;SDS011;42800;53.928;27.662;2023-09-19T00:10:55;12.15;;;5.97;;
56911;SDS011;42800;53.928;27.662;2023-09-19T00:13:21;10.40;;;6.60;;
56911;SDS011;42800;53.928;27.662;2023-09-19T00:15:49;16.08;;;6.57;;
56911;SDS011;42800;53.928;27.662;2023-09-19T00:18:15;12.52;;;6.68;;
56911;SDS011;42800;53.928;27.662;2023-09-19T00:20:44;14.85;;;6.07;;
56911;SDS011;42800;53.928;27.662;2023-09-19T00:23:12;9.00;;;6.00;;
56911;SDS011;42800;53.928;27.662;2023-09-19T00:25:38;11.07;;;6.13;;
56911;SDS011;42800;53.928;27.662;2023-09-19T00:28:05;9.98;;;8.35;;
56911;SDS011;42800;53.928;27.662;2023-09-19T00:30:32;9.35;;;6.13;;
56911;SDS011;42800;53.928;27.662;2023-09-19T00:32:58;9.38;;;8.40;;
56911;SDS011;42800;53.928;27.662;2023-09-19T00:35:25;13.77;;;6.25;;
56911;SDS011;42800;53.928;27.662;2023-09-19T00:37:53;9.95;;;6.88;;
56911;SDS011;42800;53.928;27.662;2023-09-19T00:40:19;17.88;;;7.03;;
56911;SDS011;42800;53.928;27.662;2023-09-19T00:42:46;10.73;;;8.43;;
56911;SDS011;42800;53.928;27.662;2023-09-19T00:45:14;11.05;;;5.85;;
56911;SDS011;42800;53.928;27.662;2023-09-19T00:47:42;9.80;;;6.75;;
56911;SDS011;42800;53.928;27.662;2023-09-19T00:50:13;8.93;;;5.93;;
56911;SDS011;42800;53.928;27.662;2023-09-19T00:52:42;12.25;;;8.77;;
56911;SDS011;42800;53.928;27.662;2023-09-19T00:55:10;8.88;;;7.60;;
56911;SDS011;42800;53.928;27.662;2023-09-19T00:57:37;8.35;;;5.50;;
56911;SDS011;42800;53.928;27.662;2023-09-19T01:00:05;11.05;;;5.30;;
56911;SDS011;42800;53.928;27.662;2023-09-19T01:02:32;9.30;;;5.20;;
56911;SDS011;42800;53.928;27.662;2023-09-19T01:04:58;13.13;;;5.55;;
56911;SDS011;42800;53.928;27.662;2023-09-19T01:07:25;15.48;;;5.78;;
56911;SDS011;42800;53.928;27.662;2023-09-19T01:09:51;14.65;;;5.43;;
56911;SDS011;42800;53.928;27.662;2023-09-19T01:12:21;7.85;;;5.70;;
56911;SDS011;42800;53.928;27.662;2023-09-19T01:14:53;14.63;;;5.93;;
56911;SDS011;42800;53.928;27.662;2023-09-19T01:17:24;11.10;;;7.90;;
56911;SDS011;42800;53.928;27.662;2023-09-19T01:20:06;10.80;;;5.93;;
56911;SDS011;42800;53.928;27.662;2023-09-19T01:22:53;7.43;;;5.40;;
56911;SDS011;42800;53.928;27.662;2023-09-19T01:25:34;12.32;;;5.85;;
56911;SDS011;42800;53.928;27.662;2023-09-19T01:28:33;15.05;;;5.43;;
56911;SDS011;42800;53.928;27.662;2023-09-19T01:31:06;9.77;;;5.50;;
56911;SDS011;42800;53.928;27.662;2023-09-19T01:33:53;12.40;;;5.90;;
56911;SDS011;42800;53.928;27.662;2023-09-19T01:36:22;10.18;;;8.13;;
56911;SDS011;42800;53.928;27.662;2023-09-19T01:38:49;7.20;;;5.65;;
56911;SDS011;42800;53.928;27.662;2023-09-19T01:41:15;10.88;;;5.20;;
56911;SDS011;42800;53.928;27.662;2023-09-19T01:43:47;13.00;;;5.38;;
56911;SDS011;42800;53.928;27.662;2023-09-19T01:46:17;10.88;;;5.72;;
56911;SDS011;42800;53.928;27.662;2023-09-19T01:48:49;12.25;;;8.10;;
56911;SDS011;42800;53.928;27.662;2023-09-19T01:51:26;10.38;;;5.40;;
56911;SDS011;42800;53.928;27.662;2023-09-19T01:54:00;7.18;;;5.90;;
56911;SDS011;42800;53.928;27.662;2023-09-19T01:56:30;10.50;;;5.80;;
56911;SDS011;42800;53.928;27.662;2023-09-19T01:58:59;6.32;;;4.97;;
56911;SDS011;42800;53.928;27.662;2023-09-19T02:01:38;15.32;;;5.70;;
56911;SDS011;42800;53.928;27.662;2023-09-19T02:04:06;10.05;;;5.78;;
56911;SDS011;42800;53.928;27.662;2023-09-19T02:06:32;11.90;;;5.72;;
56911;SDS011;42800;53.928;27.662;2023-09-19T02:08:59;7.65;;;5.60;;
56911;SDS011;42800;53.928;27.662;2023-09-19T02:11:25;9.57;;;7.05;;
56911;SDS011;42800;53.928;27.662;2023-09-19T02:13:51;13.60;;;7.72;;
56911;SDS011;42800;53.928;27.662;2023-09-19T02:16:19;7.85;;;5.35;;
56911;SDS011;42800;53.928;27.662;2023-09-19T02:18:46;9.30;;;5.65;;
56911;SDS011;42800;53.928;27.662;2023-09-19T02:21:14;6.20;;;4.88;;
56911;SDS011;42800;53.928;27.662;2023-09-19T02:23:40;11.77;;;5.88;;
56911;SDS011;42800;53.928;27.662;2023-09-19T02:26:06;9.65;;;5.55;;
56911;SDS011;42800;53.928;27.662;2023-09-19T02:28:32;6.75;;;5.57;;
56911;SDS011;42800;53.928;27.662;2023-09-19T02:30:59;9.27;;;5.43;;
56911;SDS011;42800;53.928;27.662;2023-09-19T02:33:25;12.35;;;7.68;;
56911;SDS011;42800;53.928;27.662;2023-09-19T02:35:54;9.80;;;5.80;;
56911;SDS011;42800;53.928;27.662;2023-09-19T02:38:22;8.48;;;5.18;;
56911;SDS011;42800;53.928;27.662;2023-09-19T02:40:49;8.82;;;7.72;;
56911;SDS011;42800;53.928;27.662;2023-09-19T02:43:16;14.00;;;5.90;;
56911;SDS011;42800;53.928;27.662;2023-09-19T02:45:42;12.52;;;4.90;;
56911;SDS011;42800;53.928;27.662;2023-09-19T02:48:08;13.35;;;7.32;;
56911;SDS011;42800;53.928;27.662;2023-09-19T02:50:36;8.35;;;5.78;;
56911;SDS011;42800;53.928;27.662;2023-09-19T02:53:04;8.73;;;5.78;;
56911;SDS011;42800;53.928;27.662;2023-09-19T02:55:31;8.52;;;7.68;;
56911;SDS011;42800;53.928;27.662;2023-09-19T02:57:57;7.78;;;5.40;;
56911;SDS011;42800;53.928;27.662;2023-09-19T03:00:23;8.75;;;5.32;;
56911;SDS011;42800;53.928;27.662;2023-09-19T03:02:50;7.95;;;5.65;;
56911;SDS011;42800;53.928;27.662;2023-09-19T03:05:16;8.00;;;5.40;;
56911;SDS011;42800;53.928;27.662;2023-09-19T03:07:43;10.20;;;6.13;;
56911;SDS011;42800;53.928;27.662;2023-09-19T03:10:12;9.20;;;5.28;;
56911;SDS011;42800;53.928;27.662;2023-09-19T03:12:40;9.63;;;5.70;;
56911;SDS011;42800;53.928;27.662;2023-09-19T03:15:07;6.80;;;4.90;;
56911;SDS011;42800;53.928;27.662;2023-09-19T03:17:34;8.02;;;6.32;;
56911;SDS011;42800;53.928;27.662;2023-09-19T03:20:00;9.27;;;5.90;;
56911;SDS011;42800;53.928;27.662;2023-09-19T03:22:26;9.00;;;5.60;;
56911;SDS011;42800;53.928;27.662;2023-09-19T03:24:52;8.77;;;5.40;;
56911;SDS011;42800;53.928;27.662;2023-09-19T03:27:19;9.95;;;6.07;;
56911;SDS011;42800;53.928;27.662;2023-09-19T03:29:46;8.55;;;6.00;;
56911;SDS011;42800;53.928;27.662;2023-09-19T03:32:12;10.02;;;6.13;;
56911;SDS011;42800;53.928;27.662;2023-09-19T03:34:38;11.02;;;8.75;;
56911;SDS011;42800;53.928;27.662;2023-09-19T03:37:08;16.23;;;6.50;;
56911;SDS011;42800;53.928;27.662;2023-09-19T03:39:34;8.10;;;5.07;;
56911;SDS011;42800;53.928;27.662;2023-09-19T03:42:00;13.38;;;5.95;;
56911;SDS011;42800;53.928;27.662;2023-09-19T03:44:27;9.48;;;5.78;;
56911;SDS011;42800;53.928;27.662;2023-09-19T03:46:53;8.55;;;6.25;;
56911;SDS011;42800;53.928;27.662;2023-09-19T03:49:20;11.45;;;5.93;;
56911;SDS011;42800;53.928;27.662;2023-09-19T03:51:46;7.78;;;5.82;;
56911;SDS011;42800;53.928;27.662;2023-09-19T03:54:12;10.75;;;6.32;;
56911;SDS011;42800;53.928;27.662;2023-09-19T03:56:38;9.43;;;6.65;;
56911;SDS011;42800;53.928;27.662;2023-09-19T03:59:04;12.13;;;9.00;;
56911;SDS011;42800;53.928;27.662;2023-09-19T04:01:31;10.10;;;8.95;;
56911;SDS011;42800;53.928;27.662;2023-09-19T04:03:58;11.20;;;6.40;;
56911;SDS011;42800;53.928;27.662;2023-09-19T04:06:33;8.32;;;5.72;;
56911;SDS011;42800;53.928;27.662;2023-09-19T04:09:00;9.52;;;6.05;;
56911;SDS011;42800;53.928;27.662;2023-09-19T04:11:26;7.82;;;5.78;;
56911;SDS011;42800;53.928;27.662;2023-09-19T04:13:51;10.40;;;5.63;;
56911;SDS011;42800;53.928;27.662;2023-09-19T04:16:17;12.38;;;6.18;;
56911;SDS011;42800;53.928;27.662;2023-09-19T04:18:44;13.45;;;6.32;;
56911;SDS011;42800;53.928;27.662;2023-09-19T04:21:10;8.55;;;6.20;;
56911;SDS011;42800;53.928;27.662;2023-09-19T04:23:36;7.28;;;5.70;;
56911;SDS011;42800;53.928;27.662;2023-09-19T04:26:02;13.40;;;6.65;;
56911;SDS011;42800;53.928;27.662;2023-09-19T04:28:29;7.70;;;5.72;;
56911;SDS011;42800;53.928;27.662;2023-09-19T04:30:56;12.43;;;6.35;;
56911;SDS011;42800;53.928;27.662;2023-09-19T04:33:22;11.80;;;6.35;;
56911;SDS011;42800;53.928;27.662;2023-09-19T04:35:49;10.35;;;8.70;;
56911;SDS011;42800;53.928;27.662;2023-09-19T04:38:16;16.50;;;6.40;;
56911;SDS011;42800;53.928;27.662;2023-09-19T04:40:42;7.70;;;6.18;;
56911;SDS011;42800;53.928;27.662;2023-09-19T04:43:08;13.75;;;5.75;;
56911;SDS011;42800;53.928;27.662;2023-09-19T04:45:34;8.50;;;5.78;;
56911;SDS011;42800;53.928;27.662;2023-09-19T04:48:00;9.13;;;5.88;;
56911;SDS011;42800;53.928;27.662;2023-09-19T04:50:27;9.77;;;5.85;;
56911;SDS011;42800;53.928;27.662;2023-09-19T04:52:55;10.90;;;5.80;;
56911;SDS011;42800;53.928;27.662;2023-09-19T04:55:21;8.10;;;5.70;;
56911;SDS011;42800;53.928;27.662;2023-09-19T04:57:47;11.45;;;5.95;;
56911;SDS011;42800;53.928;27.662;2023-09-19T05:00:14;13.10;;;8.30;;
56911;SDS011;42800;53.928;27.662;2023-09-19T05:02:42;8.95;;;5.40;;
56911;SDS011;42800;53.928;27.662;2023-09-19T05:05:08;11.80;;;5.40;;
56911;SDS011;42800;53.928;27.662;2023-09-19T05:07:35;8.40;;;5.35;;
56911;SDS011;42800;53.928;27.662;2023-09-19T05:10:02;8.48;;;5.35;;
56911;SDS011;42800;53.928;27.662;2023-09-19T05:12:30;9.93;;;7.40;;
56911;SDS011;42800;53.928;27.662;2023-09-19T05:14:56;10.30;;;7.35;;
56911;SDS011;42800;53.928;27.662;2023-09-19T05:17:22;10.43;;;5.97;;
56911;SDS011;42800;53.928;27.662;2023-09-19T05:19:50;7.93;;;5.93;;
56911;SDS011;42800;53.928;27.662;2023-09-19T05:22:15;12.82;;;5.47;;
56911;SDS011;42800;53.928;27.662;2023-09-19T05:24:43;12.52;;;5.45;;
56911;SDS011;42800;53.928;27.662;2023-09-19T05:27:13;6.85;;;5.03;;
56911;SDS011;42800;53.928;27.662;2023-09-19T05:29:39;9.77;;;5.32;;
56911;SDS011;42800;53.928;27.662;2023-09-19T05:32:05;11.57;;;5.75;;
56911;SDS011;42800;53.928;27.662;2023-09-19T05:34:31;16.20;;;6.95;;
56911;SDS011;42800;53.928;27.662;2023-09-19T05:36:57;8.43;;;5.53;;
56911;SDS011;42800;53.928;27.662;2023-09-19T05:39:23;9.02;;;5.78;;
56911;SDS011;42800;53.928;27.662;2023-09-19T05:41:49;13.20;;;5.60;;
56911;SDS011;42800;53.928;27.662;2023-09-19T05:44:15;7.22;;;5.10;;
56911;SDS011;42800;53.928;27.662;2023-09-19T05:46:41;9.93;;;6.00;;
56911;SDS011;42800;53.928;27.662;2023-09-19T05:49:07;16.23;;;5.40;;
56911;SDS011;42800;53.928;27.662;2023-09-19T05:51:33;11.82;;;5.45;;
56911;SDS011;42800;53.928;27.662;2023-09-19T05:54:00;7.75;;;5.75;;
56911;SDS011;42800;53.928;27.662;2023-09-19T05:56:27;13.05;;;7.63;;
56911;SDS011;42800;53.928;27.662;2023-09-19T05:58:52;9.98;;;5.55;;
56911;SDS011;42800;53.928;27.662;2023-09-19T06:01:19;11.60;;;7.50;;
56911;SDS011;42800;53.928;27.662;2023-09-19T06:03:45;9.95;;;5.90;;
56911;SDS011;42800;53.928;27.662;2023-09-19T06:06:11;16.52;;;6.15;;
56911;SDS011;42800;53.928;27.662;2023-09-19T06:08:37;10.85;;;6.45;;
56911;SDS011;42800;53.928;27.662;2023-09-19T06:11:03;11.38;;;5.60;;
56911;SDS011;42800;53.928;27.662;2023-09-19T06:13:30;8.85;;;5.15;;
56911;SDS011;42800;53.928;27.662;2023-09-19T06:15:58;10.07;;;5.63;;
56911;SDS011;42800;53.928;27.662;2023-09-19T06:18:28;7.32;;;5.75;;
56911;SDS011;42800;53.928;27.662;2023-09-19T06:20:58;10.38;;;6.32;;
56911;SDS011;42800;53.928;27.662;2023-09-19T06:23:25;9.88;;;5.75;;
56911;SDS011;42800;53.928;27.662;2023-09-19T06:25:51;9.82;;;5.90;;
56911;SDS011;42800;53.928;27.662;2023-09-19T06:28:18;14.23;;;7.15;;
56911;SDS011;42800;53.928;27.662;2023-09-19T06:30:48;10.75;;;4.93;;
56911;SDS011;42800;53.928;27.662;2023-09-19T06:33:15;13.55;;;6.97;;
56911;SDS011;42800;53.928;27.662;2023-09-19T06:35:42;8.95;;;5.72;;
56911;SDS011;42800;53.928;27.662;2023-09-19T06:38:12;8.85;;;5.50;;
56911;SDS011;42800;53.928;27.662;2023-09-19T06:40:38;9.85;;;5.68;;
56911;SDS011;42800;53.928;27.662;2023-09-19T06:43:05;10.25;;;5.47;;
56911;SDS011;42800;53.928;27.662;2023-09-19T06:45:31;8.93;;;5.57;;
56911;SDS011;42800;53.928;27.662;2023-09-19T06:47:57;9.80;;;7.05;;
56911;SDS011;42800;53.928;27.662;2023-09-19T06:50:25;13.95;;;7.10;;
56911;SDS011;42800;53.928;27.662;2023-09-19T06:52:53;10.00;;;7.20;;
56911;SDS011;42800;53.928;27.662;2023-09-19T06:55:21;13.80;;;6.78;;
56911;SDS011;42800;53.928;27.662;2023-09-19T06:57:50;13.63;;;8.30;;
56911;SDS011;42800;53.928;27.662;2023-09-19T07:00:16;11.95;;;7.95;;
56911;SDS011;42800;53.928;27.662;2023-09-19T07:02:43;9.38;;;7.32;;
56911;SDS011;42800;53.928;27.662;2023-09-19T07:05:09;7.95;;;5.68;;
56911;SDS011;42800;53.928;27.662;2023-09-19T07:07:35;10.30;;;5.53;;
56911;SDS011;42800;53.928;27.662;2023-09-19T07:10:02;39.15;;;6.57;;
56911;SDS011;42800;53.928;27.662;2023-09-19T07:12:30;11.55;;;5.85;;
56911;SDS011;42800;53.928;27.662;2023-09-19T07:14:56;12.60;;;5.55;;
56911;SDS011;42800;53.928;27.662;2023-09-19T07:17:22;10.40;;;6.93;;
56911;SDS011;42800;53.928;27.662;2023-09-19T07:19:49;10.35;;;6.95;;
56911;SDS011;42800;53.928;27.662;2023-09-19T07:22:15;12.38;;;6.85;;
56911;SDS011;42800;53.928;27.662;2023-09-19T07:24:41;13.70;;;7.03;;
56911;SDS011;42800;53.928;27.662;2023-09-19T07:27:08;11.23;;;6.80;;
56911;SDS011;42800;53.928;27.662;2023-09-19T07:29:34;13.35;;;6.93;;
56911;SDS011;42800;53.928;27.662;2023-09-19T07:32:01;13.27;;;7.20;;
56911;SDS011;42800;53.928;27.662;2023-09-19T07:34:26;13.48;;;6.28;;
56911;SDS011;42800;53.928;27.662;2023-09-19T07:36:52;13.27;;;6.45;;
56911;SDS011;42800;53.928;27.662;2023-09-19T07:39:18;9.13;;;6.47;;
56911;SDS011;42800;53.928;27.662;2023-09-19T07:41:45;10.65;;;6.65;;
56911;SDS011;42800;53.928;27.662;2023-09-19T07:44:12;14.52;;;7.05;;
56911;SDS011;42800;53.928;27.662;2023-09-19T07:46:40;20.17;;;7.93;;
56911;SDS011;42800;53.928;27.662;2023-09-19T07:49:06;13.90;;;8.15;;
56911;SDS011;42800;53.928;27.662;2023-09-19T07:51:33;14.30;;;7.32;;
56911;SDS011;42800;53.928;27.662;2023-09-19T07:53:59;15.77;;;6.53;;
56911;SDS011;42800;53.928;27.662;2023-09-19T07:56:24;10.65;;;6.90;;
56911;SDS011;42800;53.928;27.662;2023-09-19T07:58:52;10.77;;;6.07;;
56911;SDS011;42800;53.928;27.662;2023-09-19T08:01:19;14.55;;;7.65;;
56911;SDS011;42800;53.928;27.662;2023-09-19T08:03:49;12.23;;;7.07;;
56911;SDS011;42800;53.928;27.662;2023-09-19T08:06:15;12.27;;;6.63;;
56911;SDS011;42800;53.928;27.662;2023-09-19T08:08:42;8.82;;;6.15;;
56911;SDS011;42800;53.928;27.662;2023-09-19T08:11:07;14.60;;;6.40;;
56911;SDS011;42800;53.928;27.662;2023-09-19T08:13:37;15.48;;;6.38;;
56911;SDS011;42800;53.928;27.662;2023-09-19T08:16:06;10.38;;;6.20;;
56911;SDS011;42800;53.928;27.662;2023-09-19T08:18:33;9.02;;;6.55;;
56911;SDS011;42800;53.928;27.662;2023-09-19T08:20:58;11.82;;;6.07;;
56911;SDS011;42800;53.928;27.662;2023-09-19T08:23:25;8.90;;;5.95;;
56911;SDS011;42800;53.928;27.662;2023-09-19T08:25:55;10.52;;;5.53;;
56911;SDS011;42800;53.928;27.662;2023-09-19T08:28:21;14.90;;;5.93;;
56911;SDS011;42800;53.928;27.662;2023-09-19T08:30:49;6.90;;;5.38;;
56911;SDS011;42800;53.928;27.662;2023-09-19T08:33:15;15.00;;;6.00;;
56911;SDS011;42800;53.928;27.662;2023-09-19T08:35:42;11.20;;;6.15;;
56911;SDS011;42800;53.928;27.662;2023-09-19T08:38:10;8.73;;;5.38;;
56911;SDS011;42800;53.928;27.662;2023-09-19T08:40:37;15.43;;;5.78;;
56911;SDS011;42800;53.928;27.662;2023-09-19T08:43:04;11.63;;;5.47;;
56911;SDS011;42800;53.928;27.662;2023-09-19T08:45:32;6.05;;;5.45;;
56911;SDS011;42800;53.928;27.662;2023-09-19T08:48:00;9.30;;;5.68;;
56911;SDS011;42800;53.928;27.662;2023-09-19T08:50:37;10.55;;;5.70;;
56911;SDS011;42800;53.928;27.662;2023-09-19T08:53:10;9.10;;;5.53;;
56911;SDS011;42800;53.928;27.662;2023-09-19T08:55:37;9.65;;;5.03;;
56911;SDS011;42800;53.928;27.662;2023-09-19T08:58:06;9.80;;;5.57;;
56911;SDS011;42800;53.928;27.662;2023-09-19T09:00:36;9.15;;;5.53;;
56911;SDS011;42800;53.928;27.662;2023-09-19T09:03:03;9.07;;;5.20;;
56911;SDS011;42800;53.928;27.662;2023-09-19T09:05:31;11.77;;;5.50;;
56911;SDS011;42800;53.928;27.662;2023-09-19T09:08:00;10.23;;;5.10;;
56911;SDS011;42800;53.928;27.662;2023-09-19T09:10:28;13.07;;;4.95;;
56911;SDS011;42800;53.928;27.662;2023-09-19T09:12:54;8.20;;;5.30;;
56911;SDS011;42800;53.928;27.662;2023-09-19T09:15:21;7.88;;;5.00;;
56911;SDS011;42800;53.928;27.662;2023-09-19T09:17:48;12.30;;;5.13;;
56911;SDS011;42800;53.928;27.662;2023-09-19T09:20:18;14.20;;;4.90;;
56911;SDS011;42800;53.928;27.662;2023-09-19T09:22:51;9.35;;;5.07;;
56911;SDS011;42800;53.928;27.662;2023-09-19T09:25:19;11.88;;;5.20;;
56911;SDS011;42800;53.928;27.662;2023-09-19T09:27:48;9.07;;;4.90;;
56911;SDS011;42800;53.928;27.662;2023-09-19T09:30:32;8.07;;;5.03;;
56911;SDS011;42800;53.928;27.662;2023-09-19T09:33:07;9.00;;;5.13;;
56911;SDS011;42800;53.928;27.662;2023-09-19T09:35:36;8.98;;;5.20;;
56911;SDS011;42800;53.928;27.662;2023-09-19T09:38:02;10.65;;;5.05;;
56911;SDS011;42800;53.928;27.662;2023-09-19T09:40:38;8.98;;;4.82;;
56911;SDS011;42800;53.928;27.662;2023-09-19T09:43:24;14.00;;;4.97;;
56911;SDS011;42800;53.928;27.662;2023-09-19T09:46:10;6.97;;;4.93;;
56911;SDS011;42800;53.928;27.662;2023-09-19T09:48:56;11.60;;;5.45;;
56911;SDS011;42800;53.928;27.662;2023-09-19T09:51:38;7.63;;;4.90;;
56911;SDS011;42800;53.928;27.662;2023-09-19T09:54:10;7.70;;;4.80;;
56911;SDS011;42800;53.928;27.662;2023-09-19T09:56:41;8.15;;;4.30;;
56911;SDS011;42800;53.928;27.662;2023-09-19T09:59:18;8.68;;;5.32;;
56911;SDS011;42800;53.928;27.662;2023-09-19T10:01:48;17.55;;;5.03;;
56911;SDS011;42800;53.928;27.662;2023-09-19T10:04:15;10.65;;;4.88;;
56911;SDS011;42800;53.928;27.662;2023-09-19T10:06:54;8.13;;;4.68;;
56911;SDS011;42800;53.928;27.662;2023-09-19T10:09:20;8.85;;;5.00;;
56911;SDS011;42800;53.928;27.662;2023-09-19T10:12:00;8.82;;;4.90;;
56911;SDS011;42800;53.928;27.662;2023-09-19T10:14:30;7.72;;;5.28;;
56911;SDS011;42800;53.928;27.662;2023-09-19T10:16:59;8.73;;;4.38;;
56911;SDS011;42800;53.928;27.662;2023-09-19T10:19:30;7.38;;;5.20;;
56911;SDS011;42800;53.928;27.662;2023-09-19T10:22:04;10.18;;;5.25;;
56911;SDS011;42800;53.928;27.662;2023-09-19T10:24:30;7.85;;;4.72;;
56911;SDS011;42800;53.928;27.662;2023-09-19T10:27:01;8.55;;;5.10;;
56911;SDS011;42800;53.928;27.662;2023-09-19T10:29:29;13.10;;;5.00;;
56911;SDS011;42800;53.928;27.662;2023-09-19T10:32:00;9.23;;;4.95;;
56911;SDS011;42800;53.928;27.662;2023-09-19T10:34:31;7.32;;;5.25;;
56911;SDS011;42800;53.928;27.662;2023-09-19T10:37:00;10.95;;;4.85;;
56911;SDS011;42800;53.928;27.662;2023-09-19T10:39:30;9.88;;;4.85;;
56911;SDS011;42800;53.928;27.662;2023-09-19T10:41:57;7.60;;;5.10;;
56911;SDS011;42800;53.928;27.662;2023-09-19T10:44:31;11.63;;;4.10;;
56911;SDS011;42800;53.928;27.662;2023-09-19T10:46:58;9.18;;;5.00;;
56911;SDS011;42800;53.928;27.662;2023-09-19T10:49:25;11.25;;;4.45;;
56911;SDS011;42800;53.928;27.662;2023-09-19T10:51:53;11.75;;;5.28;;
56911;SDS011;42800;53.928;27.662;2023-09-19T10:54:24;10.88;;;4.60;;
56911;SDS011;42800;53.928;27.662;2023-09-19T10:56:55;9.57;;;4.57;;
56911;SDS011;42800;53.928;27.662;2023-09-19T10:59:24;6.15;;;5.10;;
56911;SDS011;42800;53.928;27.662;2023-09-19T11:01:51;9.82;;;4.82;;
56911;SDS011;42800;53.928;27.662;2023-09-19T11:04:24;5.63;;;4.55;;
56911;SDS011;42800;53.928;27.662;2023-09-19T11:07:00;7.10;;;4.75;;
56911;SDS011;42800;53.928;27.662;2023-09-19T11:09:45;14.15;;;5.53;;
56911;SDS011;42800;53.928;27.662;2023-09-19T11:12:12;6.72;;;4.55;;
56911;SDS011;42800;53.928;27.662;2023-09-19T11:14:41;12.57;;;5.15;;
56911;SDS011;42800;53.928;27.662;2023-09-19T11:20:21;6.40;;;4.93;;
56911;SDS011;42800;53.928;27.662;2023-09-19T11:23:17;8.43;;;3.10;;
56911;SDS011;42800;53.928;27.662;2023-09-19T11:25:47;10.35;;;5.15;;
56911;SDS011;42800;53.928;27.662;2023-09-19T11:34:39;5.38;;;4.45;;
56911;SDS011;42800;53.928;27.662;2023-09-19T11:40:42;6.40;;;3.28;;
56911;SDS011;42800;53.928;27.662;2023-09-19T11:43:29;8.43;;;3.88;;
56911;SDS011;42800;53.928;27.662;2023-09-19T11:46:07;9.38;;;3.78;;
56911;SDS011;42800;53.928;27.662;2023-09-19T11:48:40;6.38;;;3.42;;
56911;SDS011;42800;53.928;27.662;2023-09-19T11:51:14;11.03;;;3.40;;
56911;SDS011;42800;53.928;27.662;2023-09-19T11:53:45;8.23;;;3.67;;
56911;SDS011;42800;53.928;27.662;2023-09-19T11:56:13;10.52;;;5.25;;
56911;SDS011;42800;53.928;27.662;2023-09-19T11:58:40;6.80;;;3.83;;
56911;SDS011;42800;53.928;27.662;2023-09-19T12:01:07;8.15;;;5.30;;
56911;SDS011;42800;53.928;27.662;2023-09-19T12:03:40;8.30;;;4.97;;
56911;SDS011;42800;53.928;27.662;2023-09-19T12:06:13;6.50;;;3.30;;
56911;SDS011;42800;53.928;27.662;2023-09-19T12:08:40;5.13;;;3.00;;
56911;SDS011;42800;53.928;27.662;2023-09-19T12:11:11;4.90;;;3.20;;
56911;SDS011;42800;53.928;27.662;2023-09-19T12:13:40;4.40;;;3.10;;
56911;SDS011;42800;53.928;27.662;2023-09-19T12:16:13;12.18;;;3.75;;
56911;SDS011;42800;53.928;27.662;2023-09-19T12:18:40;4.30;;;3.25;;
56911;SDS011;42800;53.928;27.662;2023-09-19T12:21:18;7.05;;;3.15;;
56911;SDS011;42800;53.928;27.662;2023-09-19T12:23:56;9.00;;;3.28;;
56911;SDS011;42800;53.928;27.662;2023-09-19T12:26:22;5.43;;;3.20;;
56911;SDS011;42800;53.928;27.662;2023-09-19T12:28:49;5.95;;;3.63;;
56911;SDS011;42800;53.928;27.662;2023-09-19T12:31:17;5.82;;;3.63;;
56911;SDS011;42800;53.928;27.662;2023-09-19T12:33:44;9.02;;;4.50;;
56911;SDS011;42800;53.928;27.662;2023-09-19T12:36:20;7.53;;;4.43;;
56911;SDS011;42800;53.928;27.662;2023-09-19T12:38:50;7.60;;;4.30;;
56911;SDS011;42800;53.928;27.662;2023-09-19T12:41:18;7.53;;;4.40;;
56911;SDS011;42800;53.928;27.662;2023-09-19T12:43:46;8.90;;;3.58;;
56911;SDS011;42800;53.928;27.662;2023-09-19T12:46:12;4.78;;;3.83;;
56911;SDS011;42800;53.928;27.662;2023-09-19T12:48:38;12.70;;;3.50;;
56911;SDS011;42800;53.928;27.662;2023-09-19T12:51:09;5.20;;;2.92;;
56911;SDS011;42800;53.928;27.662;2023-09-19T12:53:38;8.30;;;4.63;;
56911;SDS011;42800;53.928;27.662;2023-09-19T12:56:07;7.20;;;4.63;;
56911;SDS011;42800;53.928;27.662;2023-09-19T12:58:36;7.72;;;3.40;;
56911;SDS011;42800;53.928;27.662;2023-09-19T13:01:14;8.52;;;5.00;;
56911;SDS011;42800;53.928;27.662;2023-09-19T13:03:40;6.25;;;4.85;;
56911;SDS011;42800;53.928;27.662;2023-09-19T13:06:07;6.10;;;3.53;;
56911;SDS011;42800;53.928;27.662;2023-09-19T13:08:35;11.02;;;4.30;;
56911;SDS011;42800;53.928;27.662;2023-09-19T13:11:07;12.05;;;5.25;;
56911;SDS011;42800;53.928;27.662;2023-09-19T13:13:38;6.18;;;5.40;;
56911;SDS011;42800;53.928;27.662;2023-09-19T13:16:09;5.35;;;3.35;;
56911;SDS011;42800;53.928;27.662;2023-09-19T13:18:43;6.75;;;3.80;;
56911;SDS011;42800;53.928;27.662;2023-09-19T13:21:13;5.43;;;3.42;;
56911;SDS011;42800;53.928;27.662;2023-09-19T13:26:44;7.75;;;3.33;;
56911;SDS011;42800;53.928;27.662;2023-09-19T13:29:10;10.88;;;2.90;;
56911;SDS011;42800;53.928;27.662;2023-09-19T13:31:36;4.10;;;3.17;;
56911;SDS011;42800;53.928;27.662;2023-09-19T13:34:06;3.92;;;3.28;;
56911;SDS011;42800;53.928;27.662;2023-09-19T13:36:32;4.18;;;3.28;;
56911;SDS011;42800;53.928;27.662;2023-09-19T13:38:58;6.90;;;3.80;;
56911;SDS011;42800;53.928;27.662;2023-09-19T13:41:25;7.50;;;4.00;;
56911;SDS011;42800;53.928;27.662;2023-09-19T13:43:54;9.82;;;4.95;;
56911;SDS011;42800;53.928;27.662;2023-09-19T13:46:22;11.40;;;3.95;;
56911;SDS011;42800;53.928;27.662;2023-09-19T13:48:51;5.55;;;3.42;;
56911;SDS011;42800;53.928;27.662;2023-09-19T13:51:19;6.40;;;4.15;;
56911;SDS011;42800;53.928;27.662;2023-09-19T13:53:48;11.18;;;5.60;;
56911;SDS011;42800;53.928;27.662;2023-09-19T13:56:13;7.88;;;3.72;;
56911;SDS011;42800;53.928;27.662;2023-09-19T13:58:39;11.88;;;4.93;;
56911;SDS011;42800;53.928;27.662;2023-09-19T14:01:07;7.97;;;3.80;;
56911;SDS011;42800;53.928;27.662;2023-09-19T14:03:37;9.25;;;3.97;;
56911;SDS011;42800;53.928;27.662;2023-09-19T14:06:03;7.63;;;3.42;;
56911;SDS011;42800;53.928;27.662;2023-09-19T14:08:29;5.97;;;3.65;;
56911;SDS011;42800;53.928;27.662;2023-09-19T14:10:55;7.78;;;3.97;;
56911;SDS011;42800;53.928;27.662;2023-09-19T14:13:21;4.30;;;3.50;;
56911;SDS011;42800;53.928;27.662;2023-09-19T14:15:47;8.48;;;3.55;;
56911;SDS011;42800;53.928;27.662;2023-09-19T14:18:14;8.98;;;4.22;;
56911;SDS011;42800;53.928;27.662;2023-09-19T14:20:40;7.90;;;4.50;;
56911;SDS011;42800;53.928;27.662;2023-09-19T14:23:06;8.40;;;5.50;;
56911;SDS011;42800;53.928;27.662;2023-09-19T14:25:33;9.25;;;4.03;;
56911;SDS011;42800;53.928;27.662;2023-09-19T14:28:00;8.30;;;4.15;;
56911;SDS011;42800;53.928;27.662;2023-09-19T14:30:25;9.50;;;4.40;;
56911;SDS011;42800;53.928;27.662;2023-09-19T14:32:52;9.18;;;5.25;;
56911;SDS011;42800;53.928;27.662;2023-09-19T14:35:19;5.97;;;3.80;;
56911;SDS011;42800;53.928;27.662;2023-09-19T14:37:48;4.85;;;4.07;;
56911;SDS011;42800;53.928;27.662;2023-09-19T14:40:14;5.47;;;4.35;;
56911;SDS011;42800;53.928;27.662;2023-09-19T14:42:42;13.40;;;5.60;;
56911;SDS011;42800;53.928;27.662;2023-09-19T14:45:10;10.75;;;4.68;;
56911;SDS011;42800;53.928;27.662;2023-09-19T14:47:36;7.93;;;4.10;;
56911;SDS011;42800;53.928;27.662;2023-09-19T14:50:03;13.55;;;4.70;;
56911;SDS011;42800;53.928;27.662;2023-09-19T14:52:32;9.90;;;7.10;;